Time;durP1;ratioP1;P1;durP2;ratioP2;P2;SDS_P1;SDS_P2;PMS_P1;PMS_P2;Temp;Humidity;BMP_temperature;BMP_pressure;BME280_temperature;BME280_humidity;BME280_pressure;Samples;Min_cycle;Max_cycle;Signal;HPM_P1;HPM_P2
2022/10/18 00:00:27;;;;;;;45.50;37.60;;;14.70;99.90;;;;;;5088602;28;20189;-47
2022/10/18 00:02:52;;;;;;;45.63;36.93;;;14.60;99.90;;;;;;5088361;28;20331;-47
2022/10/18 00:05:18;;;;;;;46.60;37.60;;;14.60;99.90;;;;;;5069116;28;20618;-48
2022/10/18 00:07:43;;;;;;;52.57;38.70;;;14.60;99.90;;;;;;5088766;28;20200;-51
2022/10/18 00:10:09;;;;;;;47.17;37.70;;;14.50;99.90;;;;;;5086961;28;20196;-51
2022/10/18 00:12:36;;;;;;;46.63;38.87;;;14.50;99.90;;;;;;5087859;28;20195;-48
2022/10/18 00:15:02;;;;;;;47.47;37.70;;;14.50;99.90;;;;;;5070653;28;20422;-48
2022/10/18 00:17:28;;;;;;;43.40;35.43;;;14.50;99.90;;;;;;5087841;28;20443;-49
2022/10/18 00:19:54;;;;;;;47.17;37.20;;;14.50;99.90;;;;;;5087407;28;20841;-50
2022/10/18 00:22:19;;;;;;;43.40;36.60;;;14.50;99.90;;;;;;5088453;28;20189;-51
2022/10/18 00:24:45;;;;;;;51.50;38.10;;;14.50;99.90;;;;;;5088100;28;20708;-50
2022/10/18 00:27:10;;;;;;;50.70;38.70;;;14.50;99.90;;;;;;5088155;28;20644;-47
2022/10/18 00:29:36;;;;;;;50.43;38.10;;;14.50;99.90;;;;;;5085988;28;20188;-50
2022/10/18 00:32:02;;;;;;;49.10;37.60;;;14.40;99.90;;;;;;5086130;28;20193;-52
2022/10/18 00:34:27;;;;;;;49.97;37.37;;;14.40;99.90;;;;;;5068735;28;20241;-51
2022/10/18 00:36:53;;;;;;;47.90;37.60;;;14.40;99.90;;;;;;5088615;28;20627;-48
2022/10/18 00:39:20;;;;;;;51.60;37.53;;;14.40;99.90;;;;;;5087936;28;20533;-49
2022/10/18 00:41:47;;;;;;;45.93;37.33;;;14.40;99.90;;;;;;5089456;28;21197;-48
2022/10/18 00:44:12;;;;;;;47.63;36.60;;;14.30;99.90;;;;;;5088491;28;20471;-49
2022/10/18 00:46:40;;;;;;;46.97;37.50;;;14.30;99.90;;;;;;5087930;28;20937;-53
2022/10/18 00:49:19;;;;;;;48.07;38.53;;;14.40;99.90;;;;;;5088755;28;20192;-48
2022/10/18 00:52:09;;;;;;;48.87;37.20;;;14.30;99.90;;;;;;5087732;28;20914;-48
2022/10/18 00:54:39;;;;;;;50.07;39.33;;;14.40;99.90;;;;;;5087405;28;20495;-51
2022/10/18 00:57:06;;;;;;;50.33;38.73;;;14.30;99.90;;;;;;5087654;28;20959;-48
2022/10/18 00:59:32;;;;;;;53.10;39.00;;;14.30;99.90;;;;;;5087577;28;20446;-47
2022/10/18 01:01:58;;;;;;;49.57;37.63;;;14.30;99.90;;;;;;5085216;28;20450;-49
2022/10/18 01:04:24;;;;;;;50.57;39.27;;;14.30;99.90;;;;;;5086869;28;20465;-48
2022/10/18 01:07:22;;;;;;;56.70;40.60;;;14.30;99.90;;;;;;5087645;28;20220;-47
2022/10/18 01:10:21;;;;;;;50.93;37.40;;;14.30;99.90;;;;;;5087811;28;20236;-50
2022/10/18 01:13:06;;;;;;;48.73;38.23;;;14.30;99.90;;;;;;5085255;28;20448;-49
2022/10/18 01:15:47;;;;;;;47.13;38.17;;;14.30;99.90;;;;;;5085968;28;20446;-50
2022/10/18 01:18:40;;;;;;;51.73;39.20;;;14.30;99.90;;;;;;5087882;28;20438;-50
2022/10/18 01:21:05;;;;;;;49.93;38.07;;;14.30;99.90;;;;;;5079763;28;20505;-53
2022/10/18 01:23:49;;;;;;;49.63;39.30;;;14.20;99.90;;;;;;5087787;28;20449;-52
2022/10/18 01:26:33;;;;;;;48.77;38.83;;;14.20;99.90;;;;;;5086265;28;20234;-51
2022/10/18 01:29:20;;;;;;;50.13;39.63;;;14.20;99.90;;;;;;5087351;28;20810;-49
2022/10/18 01:31:55;;;;;;;48.03;37.77;;;14.20;99.90;;;;;;5087614;28;20930;-50
2022/10/18 01:34:25;;;;;;;50.10;38.67;;;14.10;99.90;;;;;;5069165;28;20477;-52
2022/10/18 01:36:54;;;;;;;51.10;38.27;;;14.10;99.90;;;;;;5087336;28;20435;-51
2022/10/18 01:39:29;;;;;;;45.60;39.67;;;14.10;99.90;;;;;;5086733;28;20438;-52
2022/10/18 01:41:58;;;;;;;50.40;38.67;;;14.00;99.90;;;;;;5077183;28;20835;-49
2022/10/18 01:44:27;;;;;;;52.77;38.43;;;14.00;99.90;;;;;;5090334;28;20462;-53
2022/10/18 01:46:55;;;;;;;56.60;40.27;;;14.00;99.90;;;;;;5091186;28;20970;-48
2022/10/18 01:49:23;;;;;;;50.13;40.47;;;14.00;99.90;;;;;;5089014;28;20446;-47
2022/10/18 01:51:48;;;;;;;54.80;40.20;;;13.90;99.90;;;;;;5090467;28;20441;-52
2022/10/18 01:54:20;;;;;;;53.30;40.67;;;13.90;99.90;;;;;;5091594;28;20438;-49
2022/10/18 01:57:08;;;;;;;52.40;40.37;;;13.90;99.90;;;;;;5089444;28;20224;-50
2022/10/18 01:59:58;;;;;;;60.40;41.17;;;13.90;99.90;;;;;;5089612;28;20999;-51
2022/10/18 02:02:47;;;;;;;52.17;39.13;;;13.90;99.90;;;;;;5091015;28;20591;-48
2022/10/18 02:05:15;;;;;;;57.80;41.83;;;13.80;99.90;;;;;;5089570;28;20472;-48
2022/10/18 02:07:46;;;;;;;55.00;41.37;;;13.80;99.90;;;;;;5090894;28;20446;-47
2022/10/18 02:10:21;;;;;;;54.20;41.77;;;13.80;99.90;;;;;;5091061;28;20441;-50
2022/10/18 02:12:49;;;;;;;52.37;38.40;;;13.80;99.90;;;;;;5090785;28;20540;-48
2022/10/18 02:15:22;;;;;;;55.40;41.10;;;13.80;99.90;;;;;;5090356;28;20469;-51
2022/10/18 02:17:51;;;;;;;61.70;43.57;;;13.80;99.90;;;;;;5090886;28;20951;-48
2022/10/18 02:20:20;;;;;;;56.10;42.13;;;13.70;99.90;;;;;;5088235;28;20445;-48
2022/10/18 02:22:49;;;;;;;55.47;41.03;;;13.70;99.90;;;;;;5089452;28;20461;-48
2022/10/18 02:25:22;;;;;;;58.07;43.13;;;13.70;99.90;;;;;;5072307;28;20496;-52
2022/10/18 02:27:48;;;;;;;51.87;41.23;;;13.60;99.90;;;;;;5087921;28;20444;-49
2022/10/18 02:30:14;;;;;;;59.13;43.10;;;13.60;99.90;;;;;;5089484;28;20504;-53
2022/10/18 02:32:52;;;;;;;56.80;41.97;;;13.60;99.90;;;;;;5090168;28;20936;-50
2022/10/18 02:35:27;;;;;;;61.23;42.63;;;13.60;99.90;;;;;;5090332;28;20193;-49
2022/10/18 02:37:55;;;;;;;54.53;41.10;;;13.60;99.90;;;;;;5090510;28;20445;-54
2022/10/18 02:40:21;;;;;;;53.80;41.60;;;13.50;99.90;;;;;;5084418;28;20439;-47
2022/10/18 02:42:50;;;;;;;55.90;42.17;;;13.50;99.90;;;;;;5090788;28;20445;-50
2022/10/18 02:45:16;;;;;;;54.03;43.23;;;13.50;99.90;;;;;;5089921;28;20924;-48
2022/10/18 02:47:41;;;;;;;60.20;43.10;;;13.50;99.90;;;;;;5088437;28;20960;-50
2022/10/18 02:50:08;;;;;;;61.00;44.57;;;13.40;99.90;;;;;;5070332;28;20438;-49
2022/10/18 02:52:33;;;;;;;58.47;44.27;;;13.40;99.90;;;;;;5088988;28;20218;-50
2022/10/18 02:55:00;;;;;;;58.70;44.30;;;13.40;99.90;;;;;;5090421;28;20825;-46
2022/10/18 02:57:25;;;;;;;56.00;42.47;;;13.40;99.90;;;;;;5067956;28;20190;-48
2022/10/18 02:59:51;;;;;;;57.93;42.87;;;13.40;99.90;;;;;;5083599;28;20449;-50
2022/10/18 03:02:16;;;;;;;59.20;43.20;;;13.40;99.90;;;;;;5066403;28;20196;-48
2022/10/18 03:04:42;;;;;;;57.07;40.63;;;13.30;99.90;;;;;;5089720;28;20325;-52
2022/10/18 03:07:07;;;;;;;55.07;42.93;;;13.30;99.90;;;;;;5088529;28;20262;-49
2022/10/18 03:09:33;;;;;;;59.47;43.10;;;13.30;99.90;;;;;;5089398;28;20194;-52
2022/10/18 03:11:58;;;;;;;56.90;43.90;;;13.30;99.90;;;;;;5089919;28;20190;-47
2022/10/18 03:14:27;;;;;;;60.50;42.70;;;13.30;99.90;;;;;;5088954;28;20199;-49
2022/10/18 03:16:53;;;;;;;55.17;41.50;;;13.30;99.90;;;;;;5089322;28;20198;-49
2022/10/18 03:19:19;;;;;;;56.20;40.77;;;13.20;99.90;;;;;;5088105;28;20437;-51
2022/10/18 03:21:44;;;;;;;62.10;44.47;;;13.30;99.90;;;;;;5089460;28;20195;-50
2022/10/18 03:24:10;;;;;;;56.70;43.43;;;13.20;99.90;;;;;;5071511;28;20334;-49
2022/10/18 03:26:35;;;;;;;56.87;42.97;;;13.20;99.90;;;;;;5089402;28;20662;-49
2022/10/18 03:29:01;;;;;;;55.07;43.60;;;13.20;99.90;;;;;;5090162;28;20215;-47
2022/10/18 03:31:26;;;;;;;57.90;44.40;;;13.20;99.90;;;;;;5088239;28;20180;-50
2022/10/18 03:33:52;;;;;;;60.43;43.57;;;13.10;99.90;;;;;;5089152;28;20237;-47
2022/10/18 03:36:18;;;;;;;59.70;43.10;;;13.10;99.90;;;;;;5082532;28;20186;-51
2022/10/18 03:38:43;;;;;;;64.27;42.97;;;13.10;99.90;;;;;;5088969;28;20225;-49
2022/10/18 03:41:09;;;;;;;57.20;42.33;;;13.10;99.90;;;;;;5084046;28;20184;-52
2022/10/18 03:43:34;;;;;;;61.67;42.50;;;13.10;99.90;;;;;;5088411;28;20240;-49
2022/10/18 03:46:00;;;;;;;56.30;42.30;;;13.10;99.90;;;;;;5087428;28;20214;-53
2022/10/18 03:48:26;;;;;;;51.57;39.17;;;13.10;99.90;;;;;;5088114;28;20207;-51
2022/10/18 03:50:51;;;;;;;56.67;41.57;;;13.00;99.90;;;;;;5069523;28;20773;-49
2022/10/18 03:53:17;;;;;;;62.67;43.37;;;12.90;99.90;;;;;;5070854;28;20188;-50
2022/10/18 03:55:43;;;;;;;56.77;42.07;;;12.80;99.90;;;;;;5086410;28;20191;-49
2022/10/18 03:58:08;;;;;;;60.43;43.93;;;12.80;99.90;;;;;;5087241;28;20285;-47
2022/10/18 04:00:34;;;;;;;66.27;44.17;;;12.80;99.90;;;;;;5087543;28;20320;-52
2022/10/18 04:03:00;;;;;;;59.50;43.97;;;12.80;99.90;;;;;;5088046;28;20676;-49
2022/10/18 04:05:29;;;;;;;58.37;45.77;;;12.80;99.90;;;;;;5088970;28;20466;-48
2022/10/18 04:07:54;;;;;;;61.17;45.03;;;12.90;99.90;;;;;;5088893;28;20252;-50
2022/10/18 04:10:20;;;;;;;68.03;45.77;;;12.90;99.90;;;;;;5088122;28;20444;-51
2022/10/18 04:12:46;;;;;;;61.33;46.47;;;12.90;99.90;;;;;;5087443;28;20198;-51
2022/10/18 04:15:11;;;;;;;63.10;46.10;;;13.00;99.90;;;;;;5089166;28;20266;-49
2022/10/18 04:17:37;;;;;;;64.53;47.23;;;13.00;99.90;;;;;;5068796;28;20200;-53
2022/10/18 04:20:02;;;;;;;60.77;44.70;;;13.10;99.90;;;;;;5082795;28;20357;-50
2022/10/18 04:22:28;;;;;;;61.33;46.37;;;13.10;99.90;;;;;;5079312;28;20669;-52
2022/10/18 04:24:55;;;;;;;66.20;44.17;;;13.20;99.90;;;;;;5079513;28;20893;-52
2022/10/18 04:27:21;;;;;;;60.17;44.97;;;13.20;99.90;;;;;;5078859;28;20182;-50
2022/10/18 04:29:46;;;;;;;62.13;45.97;;;13.30;99.90;;;;;;5078557;28;20912;-50
2022/10/18 04:32:12;;;;;;;64.57;46.90;;;13.40;99.90;;;;;;5078405;28;20196;-47
2022/10/18 04:34:37;;;;;;;62.50;46.63;;;13.30;99.90;;;;;;5077566;28;20254;-48
2022/10/18 04:37:03;;;;;;;57.87;43.60;;;13.30;99.90;;;;;;5077242;28;20279;-48
2022/10/18 04:39:28;;;;;;;60.47;43.93;;;13.30;99.90;;;;;;5083702;28;20678;-49
2022/10/18 04:41:54;;;;;;;57.70;45.67;;;13.30;99.90;;;;;;5069854;28;20575;-52
2022/10/18 04:44:20;;;;;;;52.50;43.80;;;13.40;99.90;;;;;;5088948;28;20231;-51
2022/10/18 04:46:45;;;;;;;62.10;44.07;;;13.40;99.90;;;;;;5087430;28;20238;-51
2022/10/18 04:49:11;;;;;;;57.03;44.40;;;13.40;99.90;;;;;;5088590;28;20199;-52
2022/10/18 04:51:36;;;;;;;54.53;42.20;;;13.40;99.90;;;;;;5088721;28;20191;-48
2022/10/18 04:54:02;;;;;;;53.87;43.30;;;13.40;99.90;;;;;;5088204;28;20268;-50
2022/10/18 04:56:28;;;;;;;53.43;40.97;;;13.40;99.90;;;;;;5088508;28;20257;-51
2022/10/18 04:58:53;;;;;;;51.60;41.70;;;13.40;99.90;;;;;;5088496;28;20298;-48
2022/10/18 05:01:19;;;;;;;58.53;41.60;;;13.50;99.90;;;;;;5088231;28;20249;-52
2022/10/18 05:03:44;;;;;;;57.23;43.20;;;13.50;99.90;;;;;;5088639;28;20255;-49
2022/10/18 05:06:10;;;;;;;55.60;41.13;;;13.50;99.90;;;;;;5088398;28;20247;-53
2022/10/18 05:08:36;;;;;;;49.60;39.57;;;13.50;99.90;;;;;;5088458;28;20264;-49
2022/10/18 05:11:02;;;;;;;49.60;40.00;;;13.50;99.90;;;;;;5088423;28;20188;-53
2022/10/18 05:13:29;;;;;;;50.63;41.20;;;13.60;99.90;;;;;;5088378;28;20188;-54
2022/10/18 05:15:54;;;;;;;49.43;39.80;;;13.60;99.90;;;;;;5088837;28;20446;-54
2022/10/18 05:18:20;;;;;;;48.87;39.70;;;13.70;99.90;;;;;;5092245;28;20483;-49
2022/10/18 05:20:46;;;;;;;46.13;39.37;;;13.70;99.90;;;;;;5092627;28;20610;-47
2022/10/18 05:23:11;;;;;;;46.53;38.13;;;13.80;99.90;;;;;;5073235;28;20216;-46
2022/10/18 05:25:41;;;;;;;49.93;38.53;;;13.80;99.90;;;;;;5092447;28;20271;-52
2022/10/18 05:28:07;;;;;;;45.93;38.20;;;13.90;99.90;;;;;;5092255;28;20620;-45
2022/10/18 05:30:35;;;;;;;42.77;37.50;;;13.80;99.90;;;;;;5092719;28;20414;-52
2022/10/18 05:33:01;;;;;;;44.60;38.60;;;13.90;99.90;;;;;;5092190;28;20449;-52
2022/10/18 05:35:26;;;;;;;46.57;39.43;;;13.80;99.90;;;;;;5092246;28;20418;-51
2022/10/18 05:37:52;;;;;;;44.97;38.10;;;13.90;99.90;;;;;;5092434;28;20322;-49
2022/10/18 05:40:18;;;;;;;46.40;40.20;;;13.80;99.90;;;;;;5092472;28;20201;-51
2022/10/18 05:42:43;;;;;;;43.73;36.87;;;13.80;99.90;;;;;;5092113;28;20195;-55
2022/10/18 05:45:09;;;;;;;45.07;38.97;;;13.90;99.90;;;;;;5090841;28;20303;-52
2022/10/18 05:47:34;;;;;;;42.53;37.63;;;13.80;99.90;;;;;;5091832;28;20197;-51
2022/10/18 05:50:00;;;;;;;44.10;38.40;;;13.80;99.90;;;;;;5091884;28;20612;-51
2022/10/18 05:52:25;;;;;;;41.83;37.33;;;13.90;99.90;;;;;;5092025;28;20305;-51
2022/10/18 05:54:51;;;;;;;45.57;38.00;;;13.90;99.90;;;;;;5091886;28;20192;-52
2022/10/18 05:57:16;;;;;;;43.13;36.83;;;13.90;99.90;;;;;;5092028;28;20190;-50
2022/10/18 05:59:43;;;;;;;43.77;37.10;;;13.90;99.90;;;;;;5092240;28;20307;-48
2022/10/18 06:02:10;;;;;;;48.40;37.00;;;14.00;99.90;;;;;;5091799;28;20192;-48
2022/10/18 06:04:36;;;;;;;42.70;36.90;;;14.00;99.90;;;;;;5091607;28;20987;-49
2022/10/18 06:07:02;;;;;;;39.30;35.00;;;14.10;99.90;;;;;;5091340;28;20498;-49
2022/10/18 06:09:29;;;;;;;40.07;35.77;;;14.00;99.90;;;;;;5073334;28;20207;-52
2022/10/18 06:11:56;;;;;;;40.10;34.37;;;14.10;99.90;;;;;;5091650;28;20449;-48
2022/10/18 06:14:22;;;;;;;42.37;36.23;;;14.10;99.90;;;;;;5091577;28;20418;-51
2022/10/18 06:16:47;;;;;;;39.37;34.43;;;14.10;99.90;;;;;;5089382;28;20473;-51
2022/10/18 06:19:13;;;;;;;39.43;35.07;;;14.10;99.90;;;;;;5080989;28;20197;-51
2022/10/18 06:21:38;;;;;;;38.27;34.10;;;14.10;99.90;;;;;;5091163;28;20197;-46
2022/10/18 06:24:04;;;;;;;35.60;31.53;;;14.10;99.90;;;;;;5091615;28;20316;-50
2022/10/18 06:26:30;;;;;;;36.30;32.60;;;14.20;99.90;;;;;;5090669;28;20201;-53
2022/10/18 06:28:55;;;;;;;37.63;33.63;;;14.30;99.90;;;;;;5090396;28;20433;-48
2022/10/18 06:31:21;;;;;;;35.70;31.80;;;14.20;99.90;;;;;;5091403;28;20287;-53
2022/10/18 06:33:47;;;;;;;35.43;31.63;;;14.20;99.90;;;;;;5091159;28;20700;-49
2022/10/18 06:36:15;;;;;;;35.87;32.03;;;14.30;99.90;;;;;;5090900;28;20227;-52
2022/10/18 06:38:41;;;;;;;35.30;31.50;;;14.40;99.90;;;;;;5091066;28;20245;-51
2022/10/18 06:41:07;;;;;;;35.17;31.47;;;14.40;99.90;;;;;;5091028;28;20922;-51
2022/10/18 06:43:33;;;;;;;36.20;32.20;;;14.50;99.90;;;;;;5091134;28;20662;-50
2022/10/18 06:46:02;;;;;;;33.07;29.70;;;14.40;99.90;;;;;;5080551;28;20486;-51
2022/10/18 06:48:28;;;;;;;34.03;30.53;;;14.50;99.90;;;;;;5087061;28;20978;-48
2022/10/18 06:50:56;;;;;;;35.87;32.27;;;14.60;99.90;;;;;;5084083;28;20431;-49
2022/10/18 06:53:23;;;;;;;34.90;31.43;;;14.70;99.90;;;;;;5090858;28;20770;-48
2022/10/18 06:55:49;;;;;;;36.30;31.20;;;14.80;99.90;;;;;;5064769;28;20931;-50
2022/10/18 06:58:14;;;;;;;36.10;31.20;;;14.60;99.90;;;;;;5090688;28;20422;-52
2022/10/18 07:00:40;;;;;;;35.50;31.77;;;14.50;99.90;;;;;;5090712;28;20250;-53
2022/10/18 07:03:06;;;;;;;34.23;30.63;;;14.50;99.90;;;;;;5090706;28;20192;-54
2022/10/18 07:05:31;;;;;;;32.63;29.23;;;14.50;99.90;;;;;;5090230;28;20327;-49
2022/10/18 07:07:57;;;;;;;34.10;30.50;;;14.60;99.90;;;;;;5090869;28;20178;-49
2022/10/18 07:10:23;;;;;;;34.97;31.33;;;14.60;99.90;;;;;;5090343;28;20702;-47
2022/10/18 07:12:49;;;;;;;32.83;29.40;;;14.60;99.90;;;;;;5090423;28;20197;-49
2022/10/18 07:15:16;;;;;;;36.80;31.10;;;14.70;99.90;;;;;;5089085;28;20500;-50
2022/10/18 07:17:44;;;;;;;33.50;30.00;;;14.70;99.90;;;;;;5082535;28;20270;-48
2022/10/18 07:20:10;;;;;;;33.77;30.30;;;14.80;99.90;;;;;;5089840;28;20847;-53
2022/10/18 07:22:37;;;;;;;33.50;29.37;;;15.00;99.90;;;;;;5090165;28;20441;-49
2022/10/18 07:25:04;;;;;;;32.77;29.30;;;15.00;99.90;;;;;;5089923;28;20466;-49
2022/10/18 07:27:29;;;;;;;32.20;28.90;;;15.20;99.90;;;;;;5090169;28;20524;-50
2022/10/18 07:29:55;;;;;;;31.23;28.03;;;15.20;99.90;;;;;;5089548;28;20507;-46
2022/10/18 07:32:20;;;;;;;31.80;28.50;;;15.20;99.90;;;;;;5090273;28;20225;-51
2022/10/18 07:34:46;;;;;;;31.80;28.50;;;15.30;99.90;;;;;;5090008;28;20290;-49
2022/10/18 07:37:11;;;;;;;33.30;29.60;;;15.30;99.90;;;;;;5089922;28;20636;-50
2022/10/18 07:39:37;;;;;;;33.50;28.80;;;15.40;99.90;;;;;;5089737;28;20697;-52
2022/10/18 07:42:02;;;;;;;32.27;28.97;;;15.50;99.90;;;;;;5089827;28;20201;-51
2022/10/18 07:44:28;;;;;;;31.40;28.20;;;15.50;99.90;;;;;;5088398;28;20283;-53
2022/10/18 07:46:54;;;;;;;33.90;28.00;;;15.60;99.90;;;;;;5082100;28;20734;-50
2022/10/18 07:49:19;;;;;;;31.87;28.57;;;15.70;99.90;;;;;;5071440;28;20552;-47
2022/10/18 07:51:45;;;;;;;36.30;29.73;;;15.70;99.90;;;;;;5089564;28;20620;-52
2022/10/18 07:54:10;;;;;;;33.23;29.70;;;15.70;99.90;;;;;;5089625;28;20225;-52
2022/10/18 07:56:36;;;;;;;31.50;28.30;;;15.90;99.90;;;;;;5089419;28;20296;-49
2022/10/18 07:59:01;;;;;;;32.63;29.20;;;15.90;99.90;;;;;;5089364;28;20603;-53
2022/10/18 08:01:27;;;;;;;32.87;29.50;;;16.10;99.90;;;;;;5089215;28;20707;-47
2022/10/18 08:03:53;;;;;;;33.20;29.63;;;16.00;99.90;;;;;;5089038;28;20192;-51
2022/10/18 08:06:20;;;;;;;31.17;27.97;;;16.10;99.90;;;;;;5089046;28;20236;-47
2022/10/18 08:08:46;;;;;;;31.97;28.73;;;16.20;99.90;;;;;;5088982;28;20298;-47
2022/10/18 08:11:15;;;;;;;33.30;30.00;;;16.20;99.90;;;;;;5089511;28;20976;-48
2022/10/18 08:13:41;;;;;;;32.83;29.53;;;16.40;99.90;;;;;;5088083;28;20188;-50
2022/10/18 08:16:09;;;;;;;32.30;28.83;;;16.30;99.90;;;;;;5089356;28;20418;-50
2022/10/18 08:18:35;;;;;;;30.57;27.47;;;16.40;99.90;;;;;;5087375;28;20443;-50
2022/10/18 08:21:03;;;;;;;31.97;28.67;;;16.50;99.90;;;;;;5088716;28;20426;-50
2022/10/18 08:23:29;;;;;;;33.57;29.97;;;16.30;99.90;;;;;;5076071;28;20458;-48
2022/10/18 08:25:55;;;;;;;33.37;29.17;;;16.50;99.90;;;;;;5070577;28;20477;-48
2022/10/18 08:28:20;;;;;;;36.33;31.17;;;16.40;99.90;;;;;;5088968;28;20202;-48
2022/10/18 08:30:46;;;;;;;32.10;28.60;;;16.30;99.90;;;;;;5089083;28;20690;-54
2022/10/18 08:33:12;;;;;;;31.70;28.13;;;16.40;99.90;;;;;;5089236;28;20268;-50
2022/10/18 08:35:37;;;;;;;32.00;28.60;;;16.60;99.90;;;;;;5088810;28;20199;-46
2022/10/18 08:38:03;;;;;;;33.87;27.50;;;16.60;99.90;;;;;;5070708;28;20283;-53
2022/10/18 08:40:29;;;;;;;30.43;27.33;;;16.50;99.90;;;;;;5088954;28;20207;-49
2022/10/18 08:43:02;;;;;;;31.13;27.07;;;16.70;99.90;;;;;;5088964;28;20211;-52
2022/10/18 08:45:29;;;;;;;32.40;29.00;;;16.80;99.90;;;;;;5089037;28;20460;-44
2022/10/18 08:47:56;;;;;;;31.07;27.80;;;16.80;99.90;;;;;;5089014;28;20428;-47
2022/10/18 08:50:26;;;;;;;31.20;27.90;;;17.00;99.90;;;;;;5068592;28;20449;-48
2022/10/18 08:53:19;;;;;;;32.17;28.73;;;17.00;99.90;;;;;;5088531;28;20987;-49
2022/10/18 08:55:51;;;;;;;30.70;27.40;;;17.00;99.90;;;;;;5088451;28;20425;-48
2022/10/18 08:58:23;;;;;;;31.23;27.93;;;17.10;99.90;;;;;;5088587;28;20414;-47
2022/10/18 09:01:26;;;;;;;33.07;29.63;;;17.30;99.90;;;;;;5089033;28;20821;-45
2022/10/18 09:04:13;;;;;;;30.87;27.57;;;17.30;99.90;;;;;;5071083;28;20494;-48
2022/10/18 09:07:06;;;;;;;30.57;27.57;;;17.10;99.90;;;;;;5088382;28;20469;-49
2022/10/18 09:09:45;;;;;;;31.30;28.10;;;17.00;99.90;;;;;;5088496;28;20468;-47
2022/10/18 09:12:29;;;;;;;32.40;29.10;;;17.10;99.90;;;;;;5088496;28;20810;-47
2022/10/18 09:15:33;;;;;;;30.90;27.80;;;17.00;99.90;;;;;;5088327;28;20426;-49
2022/10/18 09:18:16;;;;;;;31.17;27.87;;;17.00;99.90;;;;;;5088271;28;20979;-48
2022/10/18 09:20:59;;;;;;;30.70;27.60;;;17.00;99.90;;;;;;5067446;28;20462;-50
2022/10/18 09:23:24;;;;;;;29.23;26.30;;;17.10;99.90;;;;;;5088289;28;20423;-47
2022/10/18 09:26:00;;;;;;;30.73;27.63;;;17.20;99.90;;;;;;5088162;28;20465;-51
2022/10/18 09:28:43;;;;;;;30.03;26.90;;;17.20;99.90;;;;;;5088664;28;20263;-49
2022/10/18 09:31:31;;;;;;;27.43;24.73;;;17.40;99.90;;;;;;5088183;28;20446;-50
2022/10/18 09:34:31;;;;;;;27.67;25.00;;;17.60;99.90;;;;;;5087049;28;20438;-49
2022/10/18 09:36:57;;;;;;;27.50;24.70;;;17.80;99.90;;;;;;5084014;28;20496;-52
2022/10/18 09:39:29;;;;;;;28.50;25.80;;;18.00;99.90;;;;;;5088506;28;20419;-49
2022/10/18 09:42:28;;;;;;;27.67;24.90;;;18.00;99.90;;;;;;5088019;28;20419;-50
2022/10/18 09:45:14;;;;;;;28.50;25.67;;;18.20;99.90;;;;;;5088080;28;20561;-48
2022/10/18 09:47:46;;;;;;;26.93;24.30;;;18.30;99.90;;;;;;5088250;28;20425;-50
2022/10/18 09:50:28;;;;;;;26.57;23.97;;;18.50;99.90;;;;;;5056548;28;20895;-50
2022/10/18 09:53:11;;;;;;;30.63;27.53;;;18.40;99.90;;;;;;5088237;28;20424;-49
2022/10/18 09:55:52;;;;;;;29.70;26.87;;;18.20;99.90;;;;;;5088101;28;21007;-51
2022/10/18 09:58:20;;;;;;;27.37;24.57;;;18.30;99.90;;;;;;5087986;28;20603;-56
2022/10/18 10:00:48;;;;;;;27.47;24.53;;;18.30;99.90;;;;;;5069853;28;20434;-46
2022/10/18 10:03:14;;;;;;;27.40;23.90;;;18.30;99.90;;;;;;5091316;28;20915;-50
2022/10/18 10:05:41;;;;;;;27.93;25.13;;;18.30;99.90;;;;;;5090424;28;20584;-46
2022/10/18 10:08:07;;;;;;;27.63;24.83;;;18.40;99.90;;;;;;5073331;28;20460;-50
2022/10/18 10:10:34;;;;;;;28.13;25.33;;;18.60;99.90;;;;;;5092203;28;20428;-53
2022/10/18 10:13:21;;;;;;;26.30;23.80;;;18.70;99.90;;;;;;5091778;28;20426;-49
2022/10/18 10:16:05;;;;;;;27.33;24.73;;;18.80;99.90;;;;;;5073339;28;20435;-50
2022/10/18 10:18:34;;;;;;;26.13;23.53;;;18.80;99.90;;;;;;5091650;28;20822;-49
2022/10/18 10:21:04;;;;;;;27.40;24.50;;;18.80;99.90;;;;;;5091693;28;20430;-49
2022/10/18 10:23:50;;;;;;;27.13;24.43;;;18.70;99.90;;;;;;5091832;28;20435;-48
2022/10/18 10:26:26;;;;;;;26.63;24.07;;;18.50;99.90;;;;;;5091520;28;20519;-50
2022/10/18 10:28:52;;;;;;;28.23;25.53;;;18.70;99.90;;;;;;5091301;28;20826;-48
2022/10/18 10:31:23;;;;;;;27.70;24.83;;;18.90;99.90;;;;;;5091824;28;20414;-51
2022/10/18 10:34:02;;;;;;;26.07;23.57;;;18.90;99.90;;;;;;5091062;28;20280;-51
2022/10/18 10:36:29;;;;;;;26.40;23.80;;;19.00;99.90;;;;;;5089480;28;20728;-53
2022/10/18 10:39:10;;;;;;;27.80;24.97;;;19.10;99.90;;;;;;5089485;28;20449;-50
2022/10/18 10:41:38;;;;;;;26.93;24.17;;;19.30;99.90;;;;;;5091031;28;20793;-48
2022/10/18 10:44:14;;;;;;;27.03;24.30;;;19.20;99.90;;;;;;5091176;28;20410;-50
2022/10/18 10:46:40;;;;;;;26.93;24.13;;;19.10;99.90;;;;;;5090879;28;20429;-50
2022/10/18 10:49:08;;;;;;;27.97;25.17;;;18.70;99.90;;;;;;5091028;28;20896;-48
2022/10/18 10:51:37;;;;;;;26.53;24.03;;;18.80;99.90;;;;;;5089857;28;20189;-50
2022/10/18 10:54:17;;;;;;;25.90;23.40;;;18.80;99.90;;;;;;5090948;28;20418;-50
2022/10/18 10:57:04;;;;;;;27.20;24.60;;;18.70;99.90;;;;;;5090868;28;20414;-50
2022/10/18 10:59:51;;;;;;;28.43;25.63;;;18.70;99.90;;;;;;5090770;28;20419;-50
2022/10/18 11:02:28;;;;;;;29.30;26.30;;;18.50;99.90;;;;;;5090196;28;20438;-50
2022/10/18 11:04:55;;;;;;;30.60;27.43;;;18.30;99.90;;;;;;5072314;28;20469;-52
2022/10/18 11:07:41;;;;;;;31.10;27.87;;;18.00;99.90;;;;;;5090205;28;20807;-51
2022/10/18 11:10:14;;;;;;;31.90;28.57;;;17.70;99.90;;;;;;5090810;28;20436;-51
2022/10/18 11:13:00;;;;;;;31.90;28.70;;;17.40;99.90;;;;;;5077452;28;20945;-48
2022/10/18 11:15:31;;;;;;;30.47;27.37;;;17.10;99.90;;;;;;5090258;28;20425;-55
2022/10/18 11:18:13;;;;;;;28.23;25.40;;;16.90;99.90;;;;;;5090690;28;20950;-53
2022/10/18 11:21:01;;;;;;;28.77;25.97;;;16.70;99.90;;;;;;5071376;28;20442;-49
2022/10/18 11:23:35;;;;;;;26.13;23.40;;;16.60;99.90;;;;;;5090467;28;20557;-53
2022/10/18 11:26:03;;;;;;;25.67;23.17;;;16.60;99.90;;;;;;5078099;28;20970;-49
2022/10/18 11:28:35;;;;;;;24.60;22.10;;;16.60;99.90;;;;;;5090143;28;20434;-51
2022/10/18 11:31:09;;;;;;;23.87;21.50;;;16.50;99.90;;;;;;5090436;28;20415;-50
2022/10/18 11:33:48;;;;;;;26.73;22.40;;;16.50;99.90;;;;;;5090162;28;20425;-50
2022/10/18 11:36:23;;;;;;;21.47;19.37;;;16.40;99.90;;;;;;5090010;28;20521;-53
2022/10/18 11:39:10;;;;;;;22.10;19.90;;;16.30;99.90;;;;;;5071963;28;20478;-50
2022/10/18 11:41:49;;;;;;;23.43;21.10;;;16.20;99.90;;;;;;5089824;28;20433;-52
2022/10/18 11:44:34;;;;;;;19.80;17.90;;;16.30;99.90;;;;;;5089933;28;20439;-49
2022/10/18 11:47:22;;;;;;;21.07;19.00;;;16.30;99.90;;;;;;5089725;28;20418;-50
2022/10/18 11:50:03;;;;;;;19.50;17.40;;;16.30;99.90;;;;;;5089913;28;20454;-46
2022/10/18 11:52:31;;;;;;;21.43;19.27;;;16.40;99.90;;;;;;5088396;28;21122;-50
2022/10/18 11:55:17;;;;;;;19.63;17.57;;;16.40;99.90;;;;;;5089452;28;20430;-51
2022/10/18 11:58:15;;;;;;;19.50;17.50;;;16.40;99.90;;;;;;5089361;28;20428;-47
2022/10/18 12:00:55;;;;;;;16.80;15.10;;;16.40;99.90;;;;;;5088819;28;20799;-48
2022/10/18 12:03:44;;;;;;;15.80;14.10;;;16.60;99.90;;;;;;5089957;28;20430;-52
2022/10/18 12:06:17;;;;;;;16.23;14.63;;;16.50;99.90;;;;;;5066718;28;20493;-47
2022/10/18 12:08:48;;;;;;;14.80;13.40;;;16.60;99.90;;;;;;5085028;28;20852;-48
2022/10/18 12:11:21;;;;;;;15.70;14.10;;;16.40;99.90;;;;;;5089523;28;20479;-47
2022/10/18 12:13:56;;;;;;;12.80;11.50;;;16.40;99.90;;;;;;5089080;28;20430;-51
2022/10/18 12:16:24;;;;;;;12.97;11.67;;;16.50;99.90;;;;;;5089570;28;20433;-50
2022/10/18 12:19:00;;;;;;;12.70;11.40;;;16.50;99.90;;;;;;5089209;28;20923;-48
2022/10/18 12:21:32;;;;;;;12.80;11.37;;;16.50;99.90;;;;;;5087831;28;20430;-49
2022/10/18 12:24:07;;;;;;;11.30;10.20;;;16.40;99.90;;;;;;5088426;28;20469;-45
2022/10/18 12:26:33;;;;;;;12.83;11.43;;;16.50;99.90;;;;;;5088980;28;20439;-48
2022/10/18 12:29:20;;;;;;;11.23;10.13;;;16.40;99.90;;;;;;5088923;28;20515;-51
2022/10/18 12:31:56;;;;;;;11.13;10.00;;;16.40;99.90;;;;;;5089244;28;20422;-49
2022/10/18 12:34:21;;;;;;;10.07;9.07;;;16.40;99.90;;;;;;5089224;28;20426;-47
2022/10/18 12:37:21;;;;;;;10.33;9.20;;;16.40;99.90;;;;;;5088381;28;20906;-46
2022/10/18 12:39:57;;;;;;;10.47;9.37;;;16.40;99.90;;;;;;5088872;28;20752;-49
2022/10/18 12:42:26;;;;;;;9.70;8.70;;;16.40;99.90;;;;;;5088917;28;20411;-50
2022/10/18 12:45:12;;;;;;;12.30;10.50;;;16.40;99.90;;;;;;5089268;28;20464;-50